Airport View

Enter AWOS ICAO identifier for current METAR.

ex. KFNL

KFFT 290353Z AUTO 21004KT 10SM CLR 12/11 A2994 RMK AO2 SLP133 T01220111

29 Sep 2020 04:25

Frequency: 119.275

Phone: 502-227-5087

Other Area AWOS: KLEX - KLOU - KBRY - K6I2

TAF KLEX 282320Z 2900/2924 30006KT P6SM FEW015 SCT025 BKN050 TEMPO 2900/2902 BKN015 BKN025 FM290300 VRB04KT P6SM FEW025 BKN050 FM290800 VRB03KT 5SM BR FEW005 SCT120 TEMPO 2909/2913 2SM BR BKN005 FM291400 27004KT P6SM FEW020 SCT050 BKN150 FM291800 26006KT P6SM SCT025 BKN050